sensor_id;sensor_type;location;lat;lon;timestamp;P1;durP1;ratioP1;P2;durP2;ratioP2
73283;SDS011;61519;60.050;18.582;2022-12-24T00:00:13;4.30;;;2.63;;
73283;SDS011;61519;60.050;18.582;2022-12-24T00:02:39;5.32;;;2.30;;
73283;SDS011;61519;60.050;18.582;2022-12-24T00:05:05;4.17;;;2.90;;
73283;SDS011;61519;60.050;18.582;2022-12-24T00:07:30;5.45;;;2.78;;
73283;SDS011;61519;60.050;18.582;2022-12-24T00:09:56;4.00;;;2.20;;
73283;SDS011;61519;60.050;18.582;2022-12-24T00:12:22;3.50;;;1.97;;
73283;SDS011;61519;60.050;18.582;2022-12-24T00:14:47;3.20;;;2.00;;
73283;SDS011;61519;60.050;18.582;2022-12-24T00:17:13;6.10;;;2.30;;
73283;SDS011;61519;60.050;18.582;2022-12-24T00:19:38;4.00;;;2.67;;
73283;SDS011;61519;60.050;18.582;2022-12-24T00:22:04;3.17;;;2.20;;
73283;SDS011;61519;60.050;18.582;2022-12-24T00:24:30;3.57;;;2.10;;
73283;SDS011;61519;60.050;18.582;2022-12-24T00:26:55;3.87;;;2.30;;
73283;SDS011;61519;60.050;18.582;2022-12-24T00:29:21;3.95;;;2.42;;
73283;SDS011;61519;60.050;18.582;2022-12-24T00:31:47;4.28;;;2.28;;
73283;SDS011;61519;60.050;18.582;2022-12-24T00:34:13;3.40;;;2.10;;
73283;SDS011;61519;60.050;18.582;2022-12-24T00:36:39;3.80;;;3.03;;
73283;SDS011;61519;60.050;18.582;2022-12-24T00:39:04;4.60;;;2.42;;
73283;SDS011;61519;60.050;18.582;2022-12-24T00:41:30;4.23;;;2.30;;
73283;SDS011;61519;60.050;18.582;2022-12-24T00:46:25;3.90;;;2.13;;
73283;SDS011;61519;60.050;18.582;2022-12-24T00:48:52;3.38;;;2.30;;
73283;SDS011;61519;60.050;18.582;2022-12-24T00:51:18;4.40;;;2.20;;
73283;SDS011;61519;60.050;18.582;2022-12-24T00:53:44;4.00;;;2.00;;
73283;SDS011;61519;60.050;18.582;2022-12-24T00:56:10;4.65;;;2.33;;
73283;SDS011;61519;60.050;18.582;2022-12-24T00:58:36;3.50;;;2.15;;
73283;SDS011;61519;60.050;18.582;2022-12-24T01:01:02;3.13;;;2.03;;
73283;SDS011;61519;60.050;18.582;2022-12-24T01:03:28;3.70;;;2.20;;
73283;SDS011;61519;60.050;18.582;2022-12-24T01:06:09;3.40;;;2.60;;
73283;SDS011;61519;60.050;18.582;2022-12-24T01:08:36;3.20;;;2.00;;
73283;SDS011;61519;60.050;18.582;2022-12-24T01:11:02;8.07;;;2.92;;
73283;SDS011;61519;60.050;18.582;2022-12-24T01:13:29;4.50;;;1.83;;
73283;SDS011;61519;60.050;18.582;2022-12-24T01:15:55;4.07;;;2.70;;
73283;SDS011;61519;60.050;18.582;2022-12-24T01:18:20;3.93;;;2.20;;
73283;SDS011;61519;60.050;18.582;2022-12-24T01:20:54;3.70;;;2.50;;
73283;SDS011;61519;60.050;18.582;2022-12-24T01:23:24;3.78;;;2.17;;
73283;SDS011;61519;60.050;18.582;2022-12-24T01:25:50;3.03;;;1.93;;
73283;SDS011;61519;60.050;18.582;2022-12-24T01:28:16;3.53;;;2.53;;
73283;SDS011;61519;60.050;18.582;2022-12-24T01:30:42;3.27;;;1.97;;
73283;SDS011;61519;60.050;18.582;2022-12-24T01:33:08;4.70;;;2.25;;
73283;SDS011;61519;60.050;18.582;2022-12-24T01:35:33;3.73;;;2.00;;
73283;SDS011;61519;60.050;18.582;2022-12-24T01:37:59;4.03;;;2.70;;
73283;SDS011;61519;60.050;18.582;2022-12-24T01:40:25;3.70;;;2.45;;
73283;SDS011;61519;60.050;18.582;2022-12-24T01:43:14;3.33;;;2.17;;
73283;SDS011;61519;60.050;18.582;2022-12-24T01:51:13;4.10;;;2.03;;
73283;SDS011;61519;60.050;18.582;2022-12-24T01:53:42;3.85;;;2.10;;
73283;SDS011;61519;60.050;18.582;2022-12-24T01:56:10;4.50;;;2.00;;
73283;SDS011;61519;60.050;18.582;2022-12-24T01:58:36;4.18;;;2.20;;
73283;SDS011;61519;60.050;18.582;2022-12-24T02:01:04;4.82;;;2.40;;
73283;SDS011;61519;60.050;18.582;2022-12-24T02:03:31;4.50;;;2.42;;
73283;SDS011;61519;60.050;18.582;2022-12-24T02:06:00;3.60;;;2.22;;
73283;SDS011;61519;60.050;18.582;2022-12-24T02:11:13;2.90;;;1.95;;
73283;SDS011;61519;60.050;18.582;2022-12-24T02:13:45;4.70;;;2.30;;
73283;SDS011;61519;60.050;18.582;2022-12-24T02:22:00;4.53;;;2.00;;
73283;SDS011;61519;60.050;18.582;2022-12-24T02:27:32;3.78;;;2.00;;
73283;SDS011;61519;60.050;18.582;2022-12-24T02:30:17;3.10;;;2.08;;
73283;SDS011;61519;60.050;18.582;2022-12-24T02:38:13;3.50;;;2.50;;
73283;SDS011;61519;60.050;18.582;2022-12-24T02:40:51;5.97;;;2.53;;
73283;SDS011;61519;60.050;18.582;2022-12-24T02:43:21;3.10;;;2.10;;
73283;SDS011;61519;60.050;18.582;2022-12-24T02:45:51;3.20;;;2.10;;
73283;SDS011;61519;60.050;18.582;2022-12-24T02:48:18;3.47;;;2.23;;
73283;SDS011;61519;60.050;18.582;2022-12-24T02:50:55;4.25;;;2.28;;
73283;SDS011;61519;60.050;18.582;2022-12-24T02:53:21;3.60;;;2.20;;
73283;SDS011;61519;60.050;18.582;2022-12-24T03:05:21;3.63;;;2.10;;
73283;SDS011;61519;60.050;18.582;2022-12-24T03:08:00;3.10;;;2.10;;
73283;SDS011;61519;60.050;18.582;2022-12-24T03:10:36;3.42;;;2.00;;
73283;SDS011;61519;60.050;18.582;2022-12-24T03:13:15;3.00;;;1.90;;
73283;SDS011;61519;60.050;18.582;2022-12-24T03:15:44;3.20;;;2.20;;
73283;SDS011;61519;60.050;18.582;2022-12-24T03:18:11;3.17;;;2.15;;
73283;SDS011;61519;60.050;18.582;2022-12-24T03:20:41;4.57;;;2.30;;
73283;SDS011;61519;60.050;18.582;2022-12-24T03:23:12;3.45;;;2.33;;
73283;SDS011;61519;60.050;18.582;2022-12-24T03:25:38;3.28;;;2.10;;
73283;SDS011;61519;60.050;18.582;2022-12-24T03:28:05;3.28;;;2.10;;
73283;SDS011;61519;60.050;18.582;2022-12-24T03:30:38;3.42;;;2.28;;
73283;SDS011;61519;60.050;18.582;2022-12-24T03:33:06;2.08;;;1.15;;
73283;SDS011;61519;60.050;18.582;2022-12-24T03:35:32;3.22;;;2.25;;
73283;SDS011;61519;60.050;18.582;2022-12-24T03:38:01;3.77;;;2.27;;
73283;SDS011;61519;60.050;18.582;2022-12-24T03:40:27;4.40;;;2.30;;
73283;SDS011;61519;60.050;18.582;2022-12-24T03:42:55;4.18;;;2.55;;
73283;SDS011;61519;60.050;18.582;2022-12-24T03:45:21;3.53;;;2.30;;
73283;SDS011;61519;60.050;18.582;2022-12-24T03:47:47;3.38;;;2.03;;
73283;SDS011;61519;60.050;18.582;2022-12-24T03:50:18;3.60;;;2.67;;
73283;SDS011;61519;60.050;18.582;2022-12-24T03:55:09;4.80;;;2.10;;
73283;SDS011;61519;60.050;18.582;2022-12-24T03:57:35;4.32;;;2.72;;
73283;SDS011;61519;60.050;18.582;2022-12-24T04:00:01;3.20;;;2.00;;
73283;SDS011;61519;60.050;18.582;2022-12-24T04:02:28;3.22;;;2.30;;
73283;SDS011;61519;60.050;18.582;2022-12-24T04:04:54;5.47;;;2.25;;
73283;SDS011;61519;60.050;18.582;2022-12-24T04:07:25;3.72;;;2.55;;
73283;SDS011;61519;60.050;18.582;2022-12-24T04:09:51;3.30;;;2.00;;
73283;SDS011;61519;60.050;18.582;2022-12-24T04:12:16;5.25;;;2.80;;
73283;SDS011;61519;60.050;18.582;2022-12-24T04:14:45;3.35;;;2.42;;
73283;SDS011;61519;60.050;18.582;2022-12-24T04:17:14;3.85;;;2.50;;
73283;SDS011;61519;60.050;18.582;2022-12-24T04:19:42;2.25;;;0.70;;
73283;SDS011;61519;60.050;18.582;2022-12-24T04:22:10;3.97;;;2.60;;
73283;SDS011;61519;60.050;18.582;2022-12-24T04:24:41;4.03;;;2.30;;
73283;SDS011;61519;60.050;18.582;2022-12-24T04:27:15;3.65;;;2.55;;
73283;SDS011;61519;60.050;18.582;2022-12-24T04:29:44;3.63;;;2.72;;
73283;SDS011;61519;60.050;18.582;2022-12-24T04:32:15;3.92;;;2.25;;
73283;SDS011;61519;60.050;18.582;2022-12-24T04:37:41;4.03;;;3.10;;
73283;SDS011;61519;60.050;18.582;2022-12-24T04:40:12;3.80;;;3.38;;
73283;SDS011;61519;60.050;18.582;2022-12-24T04:43:03;3.03;;;2.13;;
73283;SDS011;61519;60.050;18.582;2022-12-24T04:45:36;4.03;;;2.70;;
73283;SDS011;61519;60.050;18.582;2022-12-24T04:48:34;3.28;;;2.20;;
73283;SDS011;61519;60.050;18.582;2022-12-24T04:51:04;3.45;;;2.28;;
73283;SDS011;61519;60.050;18.582;2022-12-24T04:53:30;3.10;;;2.10;;
73283;SDS011;61519;60.050;18.582;2022-12-24T04:56:29;3.53;;;2.65;;
73283;SDS011;61519;60.050;18.582;2022-12-24T04:59:15;3.45;;;2.40;;
73283;SDS011;61519;60.050;18.582;2022-12-24T05:01:50;3.45;;;2.40;;
73283;SDS011;61519;60.050;18.582;2022-12-24T05:04:18;6.00;;;2.10;;
73283;SDS011;61519;60.050;18.582;2022-12-24T05:07:30;3.28;;;2.25;;
73283;SDS011;61519;60.050;18.582;2022-12-24T05:09:58;3.23;;;2.23;;
73283;SDS011;61519;60.050;18.582;2022-12-24T05:12:29;3.30;;;2.40;;
73283;SDS011;61519;60.050;18.582;2022-12-24T05:14:55;3.47;;;2.53;;
73283;SDS011;61519;60.050;18.582;2022-12-24T05:17:41;3.83;;;2.83;;
73283;SDS011;61519;60.050;18.582;2022-12-24T05:20:07;3.30;;;2.43;;
73283;SDS011;61519;60.050;18.582;2022-12-24T05:22:32;4.60;;;2.65;;
73283;SDS011;61519;60.050;18.582;2022-12-24T05:25:10;4.13;;;2.40;;
73283;SDS011;61519;60.050;18.582;2022-12-24T05:27:57;4.10;;;2.47;;
73283;SDS011;61519;60.050;18.582;2022-12-24T05:30:23;4.22;;;2.50;;
73283;SDS011;61519;60.050;18.582;2022-12-24T05:32:49;3.72;;;2.90;;
73283;SDS011;61519;60.050;18.582;2022-12-24T05:35:14;3.58;;;2.63;;
73283;SDS011;61519;60.050;18.582;2022-12-24T05:37:43;3.40;;;2.22;;
73283;SDS011;61519;60.050;18.582;2022-12-24T05:40:09;5.40;;;2.53;;
73283;SDS011;61519;60.050;18.582;2022-12-24T05:42:39;3.63;;;2.67;;
73283;SDS011;61519;60.050;18.582;2022-12-24T05:45:06;4.20;;;2.57;;
73283;SDS011;61519;60.050;18.582;2022-12-24T05:47:35;4.05;;;2.42;;
73283;SDS011;61519;60.050;18.582;2022-12-24T05:50:15;4.00;;;2.08;;
73283;SDS011;61519;60.050;18.582;2022-12-24T05:52:47;3.47;;;2.53;;
73283;SDS011;61519;60.050;18.582;2022-12-24T05:58:06;3.63;;;2.80;;
73283;SDS011;61519;60.050;18.582;2022-12-24T06:00:34;5.05;;;3.05;;
73283;SDS011;61519;60.050;18.582;2022-12-24T06:03:00;3.20;;;2.30;;
73283;SDS011;61519;60.050;18.582;2022-12-24T06:05:29;3.37;;;2.30;;
73283;SDS011;61519;60.050;18.582;2022-12-24T06:08:03;3.47;;;2.42;;
73283;SDS011;61519;60.050;18.582;2022-12-24T06:10:42;3.83;;;2.77;;
73283;SDS011;61519;60.050;18.582;2022-12-24T06:13:39;4.38;;;2.35;;
73283;SDS011;61519;60.050;18.582;2022-12-24T06:16:59;3.80;;;2.42;;
73283;SDS011;61519;60.050;18.582;2022-12-24T06:19:31;3.60;;;2.55;;
73283;SDS011;61519;60.050;18.582;2022-12-24T06:21:59;3.55;;;2.40;;
73283;SDS011;61519;60.050;18.582;2022-12-24T06:24:50;3.88;;;2.38;;
73283;SDS011;61519;60.050;18.582;2022-12-24T06:28:04;3.40;;;2.60;;
73283;SDS011;61519;60.050;18.582;2022-12-24T06:31:20;3.27;;;2.37;;
73283;SDS011;61519;60.050;18.582;2022-12-24T06:33:52;3.17;;;2.33;;
73283;SDS011;61519;60.050;18.582;2022-12-24T06:36:41;4.32;;;2.95;;
73283;SDS011;61519;60.050;18.582;2022-12-24T06:39:24;3.53;;;2.70;;
73283;SDS011;61519;60.050;18.582;2022-12-24T06:41:58;3.10;;;2.03;;
73283;SDS011;61519;60.050;18.582;2022-12-24T06:44:51;3.78;;;2.83;;
73283;SDS011;61519;60.050;18.582;2022-12-24T06:47:46;5.25;;;3.08;;
73283;SDS011;61519;60.050;18.582;2022-12-24T06:50:20;3.75;;;2.72;;
73283;SDS011;61519;60.050;18.582;2022-12-24T06:55:26;4.15;;;2.60;;
73283;SDS011;61519;60.050;18.582;2022-12-24T06:58:05;3.80;;;2.87;;
73283;SDS011;61519;60.050;18.582;2022-12-24T07:00:31;4.03;;;3.20;;
73283;SDS011;61519;60.050;18.582;2022-12-24T07:03:05;4.38;;;2.90;;
73283;SDS011;61519;60.050;18.582;2022-12-24T07:05:34;4.50;;;2.70;;
73283;SDS011;61519;60.050;18.582;2022-12-24T07:07:59;3.10;;;2.15;;
73283;SDS011;61519;60.050;18.582;2022-12-24T07:10:25;3.53;;;2.50;;
73283;SDS011;61519;60.050;18.582;2022-12-24T07:12:51;3.30;;;2.40;;
73283;SDS011;61519;60.050;18.582;2022-12-24T07:15:17;5.43;;;2.40;;
73283;SDS011;61519;60.050;18.582;2022-12-24T07:17:47;3.70;;;2.60;;
73283;SDS011;61519;60.050;18.582;2022-12-24T07:20:15;4.03;;;2.30;;
73283;SDS011;61519;60.050;18.582;2022-12-24T07:22:41;5.95;;;3.20;;
73283;SDS011;61519;60.050;18.582;2022-12-24T07:25:07;8.00;;;2.53;;
73283;SDS011;61519;60.050;18.582;2022-12-24T07:27:33;4.07;;;2.30;;
73283;SDS011;61519;60.050;18.582;2022-12-24T07:29:59;3.33;;;2.67;;
73283;SDS011;61519;60.050;18.582;2022-12-24T07:32:27;3.40;;;2.42;;
73283;SDS011;61519;60.050;18.582;2022-12-24T07:34:53;3.07;;;2.30;;
73283;SDS011;61519;60.050;18.582;2022-12-24T07:37:21;4.10;;;2.80;;
73283;SDS011;61519;60.050;18.582;2022-12-24T07:39:46;3.93;;;2.87;;
73283;SDS011;61519;60.050;18.582;2022-12-24T07:42:12;4.30;;;2.33;;
73283;SDS011;61519;60.050;18.582;2022-12-24T07:44:37;3.60;;;2.65;;
73283;SDS011;61519;60.050;18.582;2022-12-24T07:47:06;4.10;;;2.40;;
73283;SDS011;61519;60.050;18.582;2022-12-24T07:49:37;3.53;;;2.50;;
73283;SDS011;61519;60.050;18.582;2022-12-24T07:52:08;3.33;;;2.20;;
73283;SDS011;61519;60.050;18.582;2022-12-24T07:54:40;3.37;;;2.40;;
73283;SDS011;61519;60.050;18.582;2022-12-24T07:57:06;4.15;;;2.80;;
73283;SDS011;61519;60.050;18.582;2022-12-24T07:59:32;3.58;;;2.63;;
73283;SDS011;61519;60.050;18.582;2022-12-24T08:02:00;5.07;;;2.60;;
73283;SDS011;61519;60.050;18.582;2022-12-24T08:04:26;3.65;;;2.30;;
73283;SDS011;61519;60.050;18.582;2022-12-24T08:06:54;5.30;;;2.70;;
73283;SDS011;61519;60.050;18.582;2022-12-24T08:09:28;3.63;;;2.50;;
73283;SDS011;61519;60.050;18.582;2022-12-24T08:12:06;7.97;;;2.28;;
73283;SDS011;61519;60.050;18.582;2022-12-24T08:14:32;4.03;;;3.03;;
73283;SDS011;61519;60.050;18.582;2022-12-24T08:16:57;3.88;;;2.58;;
73283;SDS011;61519;60.050;18.582;2022-12-24T08:19:23;4.00;;;2.43;;
73283;SDS011;61519;60.050;18.582;2022-12-24T08:21:49;4.27;;;2.53;;
73283;SDS011;61519;60.050;18.582;2022-12-24T08:24:14;3.83;;;2.78;;
73283;SDS011;61519;60.050;18.582;2022-12-24T08:26:40;3.87;;;3.07;;
73283;SDS011;61519;60.050;18.582;2022-12-24T08:29:06;4.57;;;2.53;;
73283;SDS011;61519;60.050;18.582;2022-12-24T08:31:31;3.20;;;2.43;;
73283;SDS011;61519;60.050;18.582;2022-12-24T08:34:04;3.67;;;2.83;;
73283;SDS011;61519;60.050;18.582;2022-12-24T08:36:30;3.42;;;2.50;;
73283;SDS011;61519;60.050;18.582;2022-12-24T08:38:55;3.40;;;2.57;;
73283;SDS011;61519;60.050;18.582;2022-12-24T08:41:20;3.70;;;2.45;;
73283;SDS011;61519;60.050;18.582;2022-12-24T08:43:46;3.70;;;2.30;;
73283;SDS011;61519;60.050;18.582;2022-12-24T08:46:11;3.90;;;2.30;;
73283;SDS011;61519;60.050;18.582;2022-12-24T08:48:36;6.37;;;2.63;;
73283;SDS011;61519;60.050;18.582;2022-12-24T08:51:08;3.90;;;2.37;;
73283;SDS011;61519;60.050;18.582;2022-12-24T08:53:35;3.33;;;2.25;;
73283;SDS011;61519;60.050;18.582;2022-12-24T08:56:02;3.60;;;2.60;;
73283;SDS011;61519;60.050;18.582;2022-12-24T08:58:28;3.20;;;1.95;;
73283;SDS011;61519;60.050;18.582;2022-12-24T09:00:54;4.63;;;2.37;;
73283;SDS011;61519;60.050;18.582;2022-12-24T09:03:19;5.95;;;2.03;;
73283;SDS011;61519;60.050;18.582;2022-12-24T09:05:44;3.47;;;2.50;;
73283;SDS011;61519;60.050;18.582;2022-12-24T09:08:10;10.97;;;2.57;;
73283;SDS011;61519;60.050;18.582;2022-12-24T09:10:35;3.67;;;2.43;;
73283;SDS011;61519;60.050;18.582;2022-12-24T09:13:00;3.73;;;2.40;;
73283;SDS011;61519;60.050;18.582;2022-12-24T09:15:26;4.63;;;2.80;;
73283;SDS011;61519;60.050;18.582;2022-12-24T09:17:51;6.97;;;2.97;;
73283;SDS011;61519;60.050;18.582;2022-12-24T09:20:16;4.37;;;2.30;;
73283;SDS011;61519;60.050;18.582;2022-12-24T09:22:42;4.30;;;2.87;;
73283;SDS011;61519;60.050;18.582;2022-12-24T09:25:07;6.90;;;4.03;;
73283;SDS011;61519;60.050;18.582;2022-12-24T09:27:34;4.57;;;3.10;;
73283;SDS011;61519;60.050;18.582;2022-12-24T09:30:00;4.22;;;1.30;;
73283;SDS011;61519;60.050;18.582;2022-12-24T09:32:25;4.53;;;2.50;;
73283;SDS011;61519;60.050;18.582;2022-12-24T09:34:51;3.57;;;2.40;;
73283;SDS011;61519;60.050;18.582;2022-12-24T09:37:16;4.83;;;2.67;;
73283;SDS011;61519;60.050;18.582;2022-12-24T09:39:42;3.90;;;2.73;;
73283;SDS011;61519;60.050;18.582;2022-12-24T09:45:17;3.23;;;2.13;;
73283;SDS011;61519;60.050;18.582;2022-12-24T09:47:47;3.03;;;2.10;;
73283;SDS011;61519;60.050;18.582;2022-12-24T09:50:33;3.67;;;2.15;;
73283;SDS011;61519;60.050;18.582;2022-12-24T09:55:35;4.35;;;2.03;;
73283;SDS011;61519;60.050;18.582;2022-12-24T09:58:09;5.10;;;2.65;;
73283;SDS011;61519;60.050;18.582;2022-12-24T10:00:43;5.00;;;2.85;;
73283;SDS011;61519;60.050;18.582;2022-12-24T10:03:13;7.28;;;2.80;;
73283;SDS011;61519;60.050;18.582;2022-12-24T10:08:08;7.63;;;4.27;;
73283;SDS011;61519;60.050;18.582;2022-12-24T10:10:50;7.10;;;3.80;;
73283;SDS011;61519;60.050;18.582;2022-12-24T10:15:59;4.80;;;2.73;;
73283;SDS011;61519;60.050;18.582;2022-12-24T10:18:37;7.45;;;2.72;;
73283;SDS011;61519;60.050;18.582;2022-12-24T10:21:14;4.13;;;2.58;;
73283;SDS011;61519;60.050;18.582;2022-12-24T10:23:59;5.20;;;2.00;;
73283;SDS011;61519;60.050;18.582;2022-12-24T10:29:19;4.40;;;1.77;;
73283;SDS011;61519;60.050;18.582;2022-12-24T10:37:37;3.97;;;1.70;;
73283;SDS011;61519;60.050;18.582;2022-12-24T10:40:03;2.80;;;1.53;;
73283;SDS011;61519;60.050;18.582;2022-12-24T10:42:38;3.03;;;1.48;;
73283;SDS011;61519;60.050;18.582;2022-12-24T10:45:07;2.43;;;1.27;;
73283;SDS011;61519;60.050;18.582;2022-12-24T10:47:38;3.55;;;1.73;;
73283;SDS011;61519;60.050;18.582;2022-12-24T10:50:09;4.03;;;1.67;;
73283;SDS011;61519;60.050;18.582;2022-12-24T10:52:39;3.27;;;1.50;;
73283;SDS011;61519;60.050;18.582;2022-12-24T10:57:40;3.70;;;1.60;;
73283;SDS011;61519;60.050;18.582;2022-12-24T11:00:07;3.50;;;1.77;;
73283;SDS011;61519;60.050;18.582;2022-12-24T11:02:43;3.45;;;1.50;;
73283;SDS011;61519;60.050;18.582;2022-12-24T11:05:28;3.87;;;1.40;;
73283;SDS011;61519;60.050;18.582;2022-12-24T11:08:00;2.45;;;0.70;;
73283;SDS011;61519;60.050;18.582;2022-12-24T11:10:27;8.17;;;1.57;;
73283;SDS011;61519;60.050;18.582;2022-12-24T11:12:53;3.60;;;1.90;;
73283;SDS011;61519;60.050;18.582;2022-12-24T11:15:37;5.73;;;2.57;;
73283;SDS011;61519;60.050;18.582;2022-12-24T11:18:03;6.63;;;3.40;;
73283;SDS011;61519;60.050;18.582;2022-12-24T11:20:31;5.80;;;1.90;;
73283;SDS011;61519;60.050;18.582;2022-12-24T11:23:01;3.00;;;1.63;;
73283;SDS011;61519;60.050;18.582;2022-12-24T11:25:33;2.95;;;1.70;;
73283;SDS011;61519;60.050;18.582;2022-12-24T11:28:10;3.50;;;2.20;;
73283;SDS011;61519;60.050;18.582;2022-12-24T11:30:36;3.53;;;1.70;;
73283;SDS011;61519;60.050;18.582;2022-12-24T11:35:29;3.63;;;1.75;;
73283;SDS011;61519;60.050;18.582;2022-12-24T11:40:24;3.28;;;1.98;;
73283;SDS011;61519;60.050;18.582;2022-12-24T11:42:58;4.20;;;1.58;;
73283;SDS011;61519;60.050;18.582;2022-12-24T11:45:28;2.83;;;1.67;;
73283;SDS011;61519;60.050;18.582;2022-12-24T11:47:59;3.92;;;1.75;;
73283;SDS011;61519;60.050;18.582;2022-12-24T11:50:32;2.87;;;1.07;;
73283;SDS011;61519;60.050;18.582;2022-12-24T12:00:38;3.97;;;2.08;;
73283;SDS011;61519;60.050;18.582;2022-12-24T12:03:25;3.83;;;1.80;;
73283;SDS011;61519;60.050;18.582;2022-12-24T12:06:03;3.65;;;2.13;;
73283;SDS011;61519;60.050;18.582;2022-12-24T12:08:41;4.82;;;2.03;;
73283;SDS011;61519;60.050;18.582;2022-12-24T12:11:13;3.30;;;2.00;;
73283;SDS011;61519;60.050;18.582;2022-12-24T12:13:47;3.67;;;1.65;;
73283;SDS011;61519;60.050;18.582;2022-12-24T12:16:19;5.85;;;1.70;;
73283;SDS011;61519;60.050;18.582;2022-12-24T12:18:53;3.67;;;2.33;;
73283;SDS011;61519;60.050;18.582;2022-12-24T12:21:41;3.35;;;1.83;;
73283;SDS011;61519;60.050;18.582;2022-12-24T12:24:55;3.45;;;1.70;;
73283;SDS011;61519;60.050;18.582;2022-12-24T12:27:37;4.65;;;2.05;;
73283;SDS011;61519;60.050;18.582;2022-12-24T12:30:26;4.20;;;2.30;;
73283;SDS011;61519;60.050;18.582;2022-12-24T12:33:12;6.68;;;1.40;;
73283;SDS011;61519;60.050;18.582;2022-12-24T12:35:58;3.97;;;1.85;;
73283;SDS011;61519;60.050;18.582;2022-12-24T12:38:26;4.47;;;2.03;;
73283;SDS011;61519;60.050;18.582;2022-12-24T12:46:54;3.65;;;1.90;;
73283;SDS011;61519;60.050;18.582;2022-12-24T12:52:29;3.17;;;1.83;;
73283;SDS011;61519;60.050;18.582;2022-12-24T12:55:22;3.47;;;1.98;;
73283;SDS011;61519;60.050;18.582;2022-12-24T12:58:35;4.50;;;2.30;;
73283;SDS011;61519;60.050;18.582;2022-12-24T13:01:25;3.22;;;1.98;;
73283;SDS011;61519;60.050;18.582;2022-12-24T13:04:07;15.90;;;3.63;;
73283;SDS011;61519;60.050;18.582;2022-12-24T13:07:10;10.07;;;3.20;;
73283;SDS011;61519;60.050;18.582;2022-12-24T13:15:03;4.50;;;2.55;;
73283;SDS011;61519;60.050;18.582;2022-12-24T13:20:29;4.70;;;2.05;;
73283;SDS011;61519;60.050;18.582;2022-12-24T13:23:00;3.42;;;2.38;;
73283;SDS011;61519;60.050;18.582;2022-12-24T13:25:37;3.07;;;1.90;;
73283;SDS011;61519;60.050;18.582;2022-12-24T13:28:41;3.83;;;2.00;;
73283;SDS011;61519;60.050;18.582;2022-12-24T13:33:44;3.33;;;2.10;;
73283;SDS011;61519;60.050;18.582;2022-12-24T13:36:13;3.67;;;2.28;;
73283;SDS011;61519;60.050;18.582;2022-12-24T13:38:43;4.07;;;1.85;;
73283;SDS011;61519;60.050;18.582;2022-12-24T13:49:31;5.35;;;2.60;;
73283;SDS011;61519;60.050;18.582;2022-12-24T13:52:15;5.57;;;3.17;;
73283;SDS011;61519;60.050;18.582;2022-12-24T14:02:55;4.63;;;2.40;;
73283;SDS011;61519;60.050;18.582;2022-12-24T14:05:28;4.85;;;2.40;;
73283;SDS011;61519;60.050;18.582;2022-12-24T14:08:24;4.03;;;2.65;;
73283;SDS011;61519;60.050;18.582;2022-12-24T14:11:06;3.50;;;2.10;;
73283;SDS011;61519;60.050;18.582;2022-12-24T14:20:04;3.53;;;2.00;;
73283;SDS011;61519;60.050;18.582;2022-12-24T14:22:43;4.20;;;2.55;;
73283;SDS011;61519;60.050;18.582;2022-12-24T14:25:31;4.15;;;2.05;;
73283;SDS011;61519;60.050;18.582;2022-12-24T14:27:58;4.53;;;3.37;;
73283;SDS011;61519;60.050;18.582;2022-12-24T14:30:40;6.07;;;3.92;;
73283;SDS011;61519;60.050;18.582;2022-12-24T14:33:42;7.28;;;4.20;;
73283;SDS011;61519;60.050;18.582;2022-12-24T14:57:19;9.43;;;6.97;;
73283;SDS011;61519;60.050;18.582;2022-12-24T15:00:23;9.38;;;7.15;;
73283;SDS011;61519;60.050;18.582;2022-12-24T15:03:38;7.50;;;5.25;;
73283;SDS011;61519;60.050;18.582;2022-12-24T15:58:02;6.05;;;3.95;;
73283;SDS011;61519;60.050;18.582;2022-12-24T16:08:41;4.50;;;2.95;;
73283;SDS011;61519;60.050;18.582;2022-12-24T16:42:08;5.60;;;3.85;;
73283;SDS011;61519;60.050;18.582;2022-12-24T17:08:53;4.00;;;2.95;;
73283;SDS011;61519;60.050;18.582;2022-12-24T17:28:23;7.15;;;4.28;;
73283;SDS011;61519;60.050;18.582;2022-12-24T17:31:21;5.78;;;4.38;;
73283;SDS011;61519;60.050;18.582;2022-12-24T18:25:13;29.58;;;9.73;;
73283;SDS011;61519;60.050;18.582;2022-12-24T19:07:16;4.53;;;2.00;;
73283;SDS011;61519;60.050;18.582;2022-12-24T19:40:39;6.43;;;4.65;;
73283;SDS011;61519;60.050;18.582;2022-12-24T19:43:40;7.40;;;5.00;;
73283;SDS011;61519;60.050;18.582;2022-12-24T19:57:20;6.70;;;4.30;;
73283;SDS011;61519;60.050;18.582;2022-12-24T20:07:02;5.78;;;4.57;;
73283;SDS011;61519;60.050;18.582;2022-12-24T21:39:04;8.68;;;5.35;;
73283;SDS011;61519;60.050;18.582;2022-12-24T21:41:42;8.90;;;5.35;;
73283;SDS011;61519;60.050;18.582;2022-12-24T21:44:28;9.55;;;5.22;;
73283;SDS011;61519;60.050;18.582;2022-12-24T21:47:02;16.25;;;9.38;;
73283;SDS011;61519;60.050;18.582;2022-12-24T21:50:06;23.60;;;9.87;;
73283;SDS011;61519;60.050;18.582;2022-12-24T21:52:52;16.75;;;7.30;;
73283;SDS011;61519;60.050;18.582;2022-12-24T21:55:43;16.65;;;8.25;;
73283;SDS011;61519;60.050;18.582;2022-12-24T22:00:51;24.80;;;9.45;;
73283;SDS011;61519;60.050;18.582;2022-12-24T22:03:25;18.23;;;8.35;;
73283;SDS011;61519;60.050;18.582;2022-12-24T22:05:51;12.03;;;6.67;;
73283;SDS011;61519;60.050;18.582;2022-12-24T22:08:25;16.48;;;7.63;;
73283;SDS011;61519;60.050;18.582;2022-12-24T22:11:15;15.55;;;7.50;;
73283;SDS011;61519;60.050;18.582;2022-12-24T22:14:00;12.87;;;6.60;;
73283;SDS011;61519;60.050;18.582;2022-12-24T22:16:26;19.80;;;6.93;;
73283;SDS011;61519;60.050;18.582;2022-12-24T22:19:21;11.00;;;6.53;;
73283;SDS011;61519;60.050;18.582;2022-12-24T22:21:52;15.90;;;8.60;;
73283;SDS011;61519;60.050;18.582;2022-12-24T22:24:20;10.52;;;6.28;;
73283;SDS011;61519;60.050;18.582;2022-12-24T22:26:50;9.23;;;5.67;;
73283;SDS011;61519;60.050;18.582;2022-12-24T22:29:22;8.30;;;5.53;;
73283;SDS011;61519;60.050;18.582;2022-12-24T22:31:56;12.47;;;6.97;;
73283;SDS011;61519;60.050;18.582;2022-12-24T22:34:22;10.57;;;6.47;;
73283;SDS011;61519;60.050;18.582;2022-12-24T22:36:47;18.90;;;8.37;;
73283;SDS011;61519;60.050;18.582;2022-12-24T22:39:13;10.83;;;4.37;;
73283;SDS011;61519;60.050;18.582;2022-12-24T22:41:38;13.30;;;7.13;;
73283;SDS011;61519;60.050;18.582;2022-12-24T22:44:04;12.70;;;6.43;;
73283;SDS011;61519;60.050;18.582;2022-12-24T22:46:29;18.27;;;8.00;;
73283;SDS011;61519;60.050;18.582;2022-12-24T22:48:58;12.27;;;6.22;;
73283;SDS011;61519;60.050;18.582;2022-12-24T22:51:23;7.57;;;5.57;;
73283;SDS011;61519;60.050;18.582;2022-12-24T22:53:49;9.53;;;5.93;;
73283;SDS011;61519;60.050;18.582;2022-12-24T22:56:15;8.43;;;5.30;;
73283;SDS011;61519;60.050;18.582;2022-12-24T22:58:45;6.05;;;3.50;;
73283;SDS011;61519;60.050;18.582;2022-12-24T23:01:11;6.35;;;3.13;;
73283;SDS011;61519;60.050;18.582;2022-12-24T23:03:36;39.10;;;17.00;;
73283;SDS011;61519;60.050;18.582;2022-12-24T23:06:03;86.93;;;31.40;;
73283;SDS011;61519;60.050;18.582;2022-12-24T23:08:31;48.63;;;20.48;;
73283;SDS011;61519;60.050;18.582;2022-12-24T23:11:05;55.55;;;22.88;;
73283;SDS011;61519;60.050;18.582;2022-12-24T23:13:36;39.40;;;17.88;;
73283;SDS011;61519;60.050;18.582;2022-12-24T23:16:21;30.02;;;13.65;;
73283;SDS011;61519;60.050;18.582;2022-12-24T23:18:50;20.40;;;8.10;;
73283;SDS011;61519;60.050;18.582;2022-12-24T23:21:16;17.27;;;9.93;;
73283;SDS011;61519;60.050;18.582;2022-12-24T23:26:12;7.53;;;4.10;;
73283;SDS011;61519;60.050;18.582;2022-12-24T23:28:39;7.90;;;4.07;;
73283;SDS011;61519;60.050;18.582;2022-12-24T23:31:05;6.90;;;4.15;;
73283;SDS011;61519;60.050;18.582;2022-12-24T23:33:32;6.83;;;4.63;;